sensor_id;sensor_type;location;lat;lon;timestamp;P1;durP1;ratioP1;P2;durP2;ratioP2
13443;SDS011;6794;59.218;18.218;2022-11-20T00:01:06;5.40;;;3.40;;
13443;SDS011;6794;59.218;18.218;2022-11-20T00:03:33;8.27;;;5.70;;
13443;SDS011;6794;59.218;18.218;2022-11-20T00:06:00;4.13;;;3.70;;
13443;SDS011;6794;59.218;18.218;2022-11-20T00:08:26;5.07;;;3.43;;
13443;SDS011;6794;59.218;18.218;2022-11-20T00:10:52;4.60;;;3.20;;
13443;SDS011;6794;59.218;18.218;2022-11-20T00:13:18;4.70;;;3.23;;
13443;SDS011;6794;59.218;18.218;2022-11-20T00:15:44;4.27;;;3.13;;
13443;SDS011;6794;59.218;18.218;2022-11-20T00:18:10;3.73;;;2.67;;
13443;SDS011;6794;59.218;18.218;2022-11-20T00:20:36;5.60;;;2.97;;
13443;SDS011;6794;59.218;18.218;2022-11-20T00:23:02;3.90;;;3.00;;
13443;SDS011;6794;59.218;18.218;2022-11-20T00:25:28;3.87;;;3.10;;
13443;SDS011;6794;59.218;18.218;2022-11-20T00:27:54;4.43;;;3.10;;
13443;SDS011;6794;59.218;18.218;2022-11-20T00:30:20;4.60;;;2.87;;
13443;SDS011;6794;59.218;18.218;2022-11-20T00:32:46;2.60;;;2.33;;
13443;SDS011;6794;59.218;18.218;2022-11-20T00:35:12;4.73;;;2.83;;
13443;SDS011;6794;59.218;18.218;2022-11-20T00:37:38;3.77;;;3.07;;
13443;SDS011;6794;59.218;18.218;2022-11-20T00:40:04;4.07;;;3.03;;
13443;SDS011;6794;59.218;18.218;2022-11-20T00:42:30;3.77;;;2.90;;
13443;SDS011;6794;59.218;18.218;2022-11-20T00:44:57;3.87;;;3.10;;
13443;SDS011;6794;59.218;18.218;2022-11-20T00:47:23;5.33;;;2.70;;
13443;SDS011;6794;59.218;18.218;2022-11-20T00:49:49;3.60;;;3.00;;
13443;SDS011;6794;59.218;18.218;2022-11-20T00:52:15;4.17;;;3.00;;
13443;SDS011;6794;59.218;18.218;2022-11-20T00:54:41;2.73;;;2.30;;
13443;SDS011;6794;59.218;18.218;2022-11-20T00:57:07;5.30;;;3.00;;
13443;SDS011;6794;59.218;18.218;2022-11-20T00:59:33;3.43;;;2.90;;
13443;SDS011;6794;59.218;18.218;2022-11-20T01:01:59;3.50;;;2.70;;
13443;SDS011;6794;59.218;18.218;2022-11-20T01:04:25;2.97;;;2.33;;
13443;SDS011;6794;59.218;18.218;2022-11-20T01:06:51;2.90;;;2.30;;
13443;SDS011;6794;59.218;18.218;2022-11-20T01:09:17;2.63;;;2.43;;
13443;SDS011;6794;59.218;18.218;2022-11-20T01:11:44;3.07;;;2.30;;
13443;SDS011;6794;59.218;18.218;2022-11-20T01:14:12;2.50;;;2.07;;
13443;SDS011;6794;59.218;18.218;2022-11-20T01:16:40;2.37;;;2.00;;
13443;SDS011;6794;59.218;18.218;2022-11-20T01:19:09;2.33;;;1.80;;
13443;SDS011;6794;59.218;18.218;2022-11-20T01:21:37;2.13;;;1.87;;
13443;SDS011;6794;59.218;18.218;2022-11-20T01:24:03;2.60;;;2.03;;
13443;SDS011;6794;59.218;18.218;2022-11-20T01:26:31;3.30;;;1.93;;
13443;SDS011;6794;59.218;18.218;2022-11-20T01:28:57;2.03;;;1.83;;
13443;SDS011;6794;59.218;18.218;2022-11-20T01:31:24;2.23;;;1.73;;
13443;SDS011;6794;59.218;18.218;2022-11-20T01:33:51;2.67;;;1.80;;
13443;SDS011;6794;59.218;18.218;2022-11-20T01:36:18;1.70;;;1.60;;
13443;SDS011;6794;59.218;18.218;2022-11-20T01:38:45;2.07;;;1.50;;
13443;SDS011;6794;59.218;18.218;2022-11-20T01:41:12;1.77;;;1.50;;
13443;SDS011;6794;59.218;18.218;2022-11-20T01:43:58;1.57;;;1.20;;
13443;SDS011;6794;59.218;18.218;2022-11-20T01:46:24;1.93;;;1.20;;
13443;SDS011;6794;59.218;18.218;2022-11-20T01:49:01;1.20;;;1.10;;
13443;SDS011;6794;59.218;18.218;2022-11-20T01:51:29;1.63;;;1.10;;
13443;SDS011;6794;59.218;18.218;2022-11-20T01:53:57;2.50;;;1.40;;
13443;SDS011;6794;59.218;18.218;2022-11-20T01:56:25;2.42;;;1.80;;
13443;SDS011;6794;59.218;18.218;2022-11-20T01:58:54;2.60;;;1.17;;
13443;SDS011;6794;59.218;18.218;2022-11-20T02:01:22;2.57;;;1.23;;
13443;SDS011;6794;59.218;18.218;2022-11-20T02:03:48;1.80;;;0.90;;
13443;SDS011;6794;59.218;18.218;2022-11-20T02:06:31;2.17;;;1.00;;
13443;SDS011;6794;59.218;18.218;2022-11-20T02:09:00;1.17;;;1.07;;
13443;SDS011;6794;59.218;18.218;2022-11-20T02:11:26;1.33;;;1.10;;
13443;SDS011;6794;59.218;18.218;2022-11-20T02:13:52;3.33;;;1.10;;
13443;SDS011;6794;59.218;18.218;2022-11-20T02:16:39;0.80;;;0.80;;
13443;SDS011;6794;59.218;18.218;2022-11-20T02:19:09;0.77;;;0.77;;
13443;SDS011;6794;59.218;18.218;2022-11-20T02:21:40;0.73;;;0.73;;
13443;SDS011;6794;59.218;18.218;2022-11-20T02:24:08;1.63;;;1.00;;
13443;SDS011;6794;59.218;18.218;2022-11-20T02:26:38;1.13;;;1.00;;
13443;SDS011;6794;59.218;18.218;2022-11-20T02:29:05;1.60;;;1.27;;
13443;SDS011;6794;59.218;18.218;2022-11-20T02:31:38;1.40;;;1.10;;
13443;SDS011;6794;59.218;18.218;2022-11-20T02:34:05;1.60;;;1.00;;
13443;SDS011;6794;59.218;18.218;2022-11-20T02:36:32;1.40;;;1.03;;
13443;SDS011;6794;59.218;18.218;2022-11-20T02:38:58;1.00;;;0.80;;
13443;SDS011;6794;59.218;18.218;2022-11-20T02:41:37;1.30;;;0.90;;
13443;SDS011;6794;59.218;18.218;2022-11-20T02:44:03;1.00;;;0.80;;
13443;SDS011;6794;59.218;18.218;2022-11-20T02:46:29;1.00;;;0.90;;
13443;SDS011;6794;59.218;18.218;2022-11-20T02:48:56;2.30;;;0.83;;
13443;SDS011;6794;59.218;18.218;2022-11-20T02:51:22;1.42;;;1.30;;
13443;SDS011;6794;59.218;18.218;2022-11-20T02:53:48;1.27;;;1.00;;
13443;SDS011;6794;59.218;18.218;2022-11-20T02:56:14;1.20;;;1.10;;
13443;SDS011;6794;59.218;18.218;2022-11-20T02:58:41;1.00;;;0.90;;
13443;SDS011;6794;59.218;18.218;2022-11-20T03:01:07;0.70;;;0.70;;
13443;SDS011;6794;59.218;18.218;2022-11-20T03:03:33;0.60;;;0.60;;
13443;SDS011;6794;59.218;18.218;2022-11-20T03:05:59;0.83;;;0.83;;
13443;SDS011;6794;59.218;18.218;2022-11-20T03:08:25;0.60;;;0.60;;
13443;SDS011;6794;59.218;18.218;2022-11-20T03:10:51;0.83;;;0.70;;
13443;SDS011;6794;59.218;18.218;2022-11-20T03:13:17;1.00;;;0.90;;
13443;SDS011;6794;59.218;18.218;2022-11-20T03:15:43;0.80;;;0.80;;
13443;SDS011;6794;59.218;18.218;2022-11-20T03:18:09;0.53;;;0.53;;
13443;SDS011;6794;59.218;18.218;2022-11-20T03:20:36;0.50;;;0.50;;
13443;SDS011;6794;59.218;18.218;2022-11-20T03:23:02;0.63;;;0.63;;
13443;SDS011;6794;59.218;18.218;2022-11-20T03:25:28;0.50;;;0.50;;
13443;SDS011;6794;59.218;18.218;2022-11-20T03:27:54;0.53;;;0.50;;
13443;SDS011;6794;59.218;18.218;2022-11-20T03:30:20;1.77;;;0.50;;
13443;SDS011;6794;59.218;18.218;2022-11-20T03:32:46;0.60;;;0.60;;
13443;SDS011;6794;59.218;18.218;2022-11-20T03:35:12;0.50;;;0.50;;
13443;SDS011;6794;59.218;18.218;2022-11-20T03:37:39;1.10;;;0.40;;
13443;SDS011;6794;59.218;18.218;2022-11-20T03:40:05;0.77;;;0.70;;
13443;SDS011;6794;59.218;18.218;2022-11-20T03:42:31;0.93;;;0.83;;
13443;SDS011;6794;59.218;18.218;2022-11-20T03:45:09;1.20;;;1.05;;
13443;SDS011;6794;59.218;18.218;2022-11-20T03:47:36;1.63;;;0.87;;
13443;SDS011;6794;59.218;18.218;2022-11-20T03:50:02;0.67;;;0.67;;
13443;SDS011;6794;59.218;18.218;2022-11-20T03:52:28;0.50;;;0.50;;
13443;SDS011;6794;59.218;18.218;2022-11-20T03:54:54;0.43;;;0.43;;
13443;SDS011;6794;59.218;18.218;2022-11-20T03:57:20;0.70;;;0.70;;
13443;SDS011;6794;59.218;18.218;2022-11-20T03:59:46;0.70;;;0.57;;
13443;SDS011;6794;59.218;18.218;2022-11-20T04:02:12;0.37;;;0.37;;
13443;SDS011;6794;59.218;18.218;2022-11-20T04:04:38;0.60;;;0.60;;
13443;SDS011;6794;59.218;18.218;2022-11-20T04:07:04;0.47;;;0.47;;
13443;SDS011;6794;59.218;18.218;2022-11-20T04:09:30;0.60;;;0.47;;
13443;SDS011;6794;59.218;18.218;2022-11-20T04:11:56;1.63;;;0.60;;
13443;SDS011;6794;59.218;18.218;2022-11-20T04:14:22;0.57;;;0.57;;
13443;SDS011;6794;59.218;18.218;2022-11-20T04:16:48;0.47;;;0.47;;
13443;SDS011;6794;59.218;18.218;2022-11-20T04:19:15;0.63;;;0.60;;
13443;SDS011;6794;59.218;18.218;2022-11-20T04:21:41;1.23;;;0.80;;
13443;SDS011;6794;59.218;18.218;2022-11-20T04:24:08;0.80;;;0.60;;
13443;SDS011;6794;59.218;18.218;2022-11-20T04:26:35;0.50;;;0.50;;
13443;SDS011;6794;59.218;18.218;2022-11-20T04:29:01;0.93;;;0.73;;
13443;SDS011;6794;59.218;18.218;2022-11-20T04:31:28;0.77;;;0.63;;
13443;SDS011;6794;59.218;18.218;2022-11-20T04:33:54;0.63;;;0.60;;
13443;SDS011;6794;59.218;18.218;2022-11-20T04:36:22;0.93;;;0.87;;
13443;SDS011;6794;59.218;18.218;2022-11-20T04:38:51;2.40;;;1.00;;
13443;SDS011;6794;59.218;18.218;2022-11-20T04:41:18;1.37;;;0.80;;
13443;SDS011;6794;59.218;18.218;2022-11-20T04:43:51;1.47;;;0.83;;
13443;SDS011;6794;59.218;18.218;2022-11-20T04:46:18;1.03;;;0.80;;
13443;SDS011;6794;59.218;18.218;2022-11-20T04:48:45;1.27;;;0.90;;
13443;SDS011;6794;59.218;18.218;2022-11-20T04:51:11;2.03;;;0.80;;
13443;SDS011;6794;59.218;18.218;2022-11-20T04:53:37;0.57;;;0.57;;
13443;SDS011;6794;59.218;18.218;2022-11-20T04:56:04;1.57;;;0.90;;
13443;SDS011;6794;59.218;18.218;2022-11-20T04:58:30;0.50;;;0.50;;
13443;SDS011;6794;59.218;18.218;2022-11-20T05:01:00;0.63;;;0.50;;
13443;SDS011;6794;59.218;18.218;2022-11-20T05:03:27;0.57;;;0.57;;
13443;SDS011;6794;59.218;18.218;2022-11-20T05:05:53;0.30;;;0.30;;
13443;SDS011;6794;59.218;18.218;2022-11-20T05:08:19;0.63;;;0.50;;
13443;SDS011;6794;59.218;18.218;2022-11-20T05:10:45;2.43;;;1.30;;
13443;SDS011;6794;59.218;18.218;2022-11-20T05:13:11;1.00;;;0.90;;
13443;SDS011;6794;59.218;18.218;2022-11-20T05:15:37;0.77;;;0.67;;
13443;SDS011;6794;59.218;18.218;2022-11-20T05:18:03;0.60;;;0.50;;
13443;SDS011;6794;59.218;18.218;2022-11-20T05:20:29;0.50;;;0.50;;
13443;SDS011;6794;59.218;18.218;2022-11-20T05:22:58;0.95;;;0.80;;
13443;SDS011;6794;59.218;18.218;2022-11-20T05:25:24;0.80;;;0.80;;
13443;SDS011;6794;59.218;18.218;2022-11-20T05:27:50;0.73;;;0.70;;
13443;SDS011;6794;59.218;18.218;2022-11-20T05:30:16;0.90;;;0.70;;
13443;SDS011;6794;59.218;18.218;2022-11-20T05:32:42;1.00;;;0.90;;
13443;SDS011;6794;59.218;18.218;2022-11-20T05:35:08;0.60;;;0.60;;
13443;SDS011;6794;59.218;18.218;2022-11-20T05:37:34;0.80;;;0.70;;
13443;SDS011;6794;59.218;18.218;2022-11-20T05:40:00;0.80;;;0.57;;
13443;SDS011;6794;59.218;18.218;2022-11-20T05:42:29;0.50;;;0.50;;
13443;SDS011;6794;59.218;18.218;2022-11-20T05:44:56;0.87;;;0.80;;
13443;SDS011;6794;59.218;18.218;2022-11-20T05:47:22;0.90;;;0.60;;
13443;SDS011;6794;59.218;18.218;2022-11-20T05:49:48;1.90;;;1.07;;
13443;SDS011;6794;59.218;18.218;2022-11-20T05:52:14;2.30;;;1.07;;
13443;SDS011;6794;59.218;18.218;2022-11-20T05:54:40;1.30;;;1.00;;
13443;SDS011;6794;59.218;18.218;2022-11-20T05:57:06;1.97;;;1.00;;
13443;SDS011;6794;59.218;18.218;2022-11-20T05:59:32;1.00;;;0.90;;
13443;SDS011;6794;59.218;18.218;2022-11-20T06:01:58;1.27;;;0.83;;
13443;SDS011;6794;59.218;18.218;2022-11-20T06:04:24;1.40;;;1.00;;
13443;SDS011;6794;59.218;18.218;2022-11-20T06:06:50;0.60;;;0.60;;
13443;SDS011;6794;59.218;18.218;2022-11-20T06:09:16;1.77;;;0.90;;
13443;SDS011;6794;59.218;18.218;2022-11-20T06:11:42;0.93;;;0.87;;
13443;SDS011;6794;59.218;18.218;2022-11-20T06:14:08;0.80;;;0.80;;
13443;SDS011;6794;59.218;18.218;2022-11-20T06:16:34;0.60;;;0.60;;
13443;SDS011;6794;59.218;18.218;2022-11-20T06:19:00;1.23;;;1.10;;
13443;SDS011;6794;59.218;18.218;2022-11-20T06:21:26;1.60;;;0.97;;
13443;SDS011;6794;59.218;18.218;2022-11-20T06:23:53;0.80;;;0.80;;
13443;SDS011;6794;59.218;18.218;2022-11-20T06:26:20;0.80;;;0.80;;
13443;SDS011;6794;59.218;18.218;2022-11-20T06:28:46;0.73;;;0.73;;
13443;SDS011;6794;59.218;18.218;2022-11-20T06:31:13;0.67;;;0.67;;
13443;SDS011;6794;59.218;18.218;2022-11-20T06:33:40;2.20;;;0.90;;
13443;SDS011;6794;59.218;18.218;2022-11-20T06:36:06;1.13;;;1.00;;
13443;SDS011;6794;59.218;18.218;2022-11-20T06:38:32;0.80;;;0.80;;
13443;SDS011;6794;59.218;18.218;2022-11-20T06:40:58;0.53;;;0.50;;
13443;SDS011;6794;59.218;18.218;2022-11-20T06:43:24;0.77;;;0.77;;
13443;SDS011;6794;59.218;18.218;2022-11-20T06:45:54;1.10;;;1.00;;
13443;SDS011;6794;59.218;18.218;2022-11-20T06:48:20;1.33;;;1.10;;
13443;SDS011;6794;59.218;18.218;2022-11-20T06:50:46;2.80;;;1.60;;
13443;SDS011;6794;59.218;18.218;2022-11-20T06:53:12;3.00;;;1.77;;
13443;SDS011;6794;59.218;18.218;2022-11-20T06:55:41;1.53;;;1.30;;
13443;SDS011;6794;59.218;18.218;2022-11-20T06:58:08;2.83;;;1.07;;
13443;SDS011;6794;59.218;18.218;2022-11-20T07:00:34;1.63;;;1.13;;
13443;SDS011;6794;59.218;18.218;2022-11-20T07:03:03;2.10;;;1.60;;
13443;SDS011;6794;59.218;18.218;2022-11-20T07:05:30;1.73;;;1.30;;
13443;SDS011;6794;59.218;18.218;2022-11-20T07:07:56;1.50;;;1.40;;
13443;SDS011;6794;59.218;18.218;2022-11-20T07:10:22;1.60;;;1.37;;
13443;SDS011;6794;59.218;18.218;2022-11-20T07:12:49;2.00;;;1.30;;
13443;SDS011;6794;59.218;18.218;2022-11-20T07:15:15;1.30;;;1.20;;
13443;SDS011;6794;59.218;18.218;2022-11-20T07:17:42;2.80;;;1.53;;
13443;SDS011;6794;59.218;18.218;2022-11-20T07:20:08;2.20;;;1.10;;
13443;SDS011;6794;59.218;18.218;2022-11-20T07:22:34;2.03;;;1.37;;
13443;SDS011;6794;59.218;18.218;2022-11-20T07:25:00;1.30;;;1.10;;
13443;SDS011;6794;59.218;18.218;2022-11-20T07:27:26;1.93;;;1.30;;
13443;SDS011;6794;59.218;18.218;2022-11-20T07:29:52;2.17;;;1.20;;
13443;SDS011;6794;59.218;18.218;2022-11-20T07:32:19;3.43;;;1.67;;
13443;SDS011;6794;59.218;18.218;2022-11-20T07:34:45;1.37;;;1.27;;
13443;SDS011;6794;59.218;18.218;2022-11-20T07:37:11;2.10;;;1.70;;
13443;SDS011;6794;59.218;18.218;2022-11-20T07:39:37;2.93;;;1.47;;
13443;SDS011;6794;59.218;18.218;2022-11-20T07:42:03;3.20;;;1.40;;
13443;SDS011;6794;59.218;18.218;2022-11-20T07:44:29;1.83;;;1.40;;
13443;SDS011;6794;59.218;18.218;2022-11-20T07:46:55;3.20;;;2.40;;
13443;SDS011;6794;59.218;18.218;2022-11-20T07:49:21;3.23;;;1.83;;
13443;SDS011;6794;59.218;18.218;2022-11-20T07:51:49;3.17;;;1.70;;
13443;SDS011;6794;59.218;18.218;2022-11-20T07:54:16;2.93;;;1.80;;
13443;SDS011;6794;59.218;18.218;2022-11-20T07:56:42;3.10;;;1.87;;
13443;SDS011;6794;59.218;18.218;2022-11-20T07:59:08;2.00;;;1.80;;
13443;SDS011;6794;59.218;18.218;2022-11-20T08:01:36;2.20;;;1.70;;
13443;SDS011;6794;59.218;18.218;2022-11-20T08:04:02;2.07;;;1.87;;
13443;SDS011;6794;59.218;18.218;2022-11-20T08:06:28;2.97;;;1.67;;
13443;SDS011;6794;59.218;18.218;2022-11-20T08:08:54;2.90;;;1.77;;
13443;SDS011;6794;59.218;18.218;2022-11-20T08:11:20;2.30;;;1.47;;
13443;SDS011;6794;59.218;18.218;2022-11-20T08:14:05;1.40;;;1.30;;
13443;SDS011;6794;59.218;18.218;2022-11-20T08:16:38;1.87;;;1.70;;
13443;SDS011;6794;59.218;18.218;2022-11-20T08:19:04;2.23;;;1.57;;
13443;SDS011;6794;59.218;18.218;2022-11-20T08:21:30;0.83;;;0.80;;
13443;SDS011;6794;59.218;18.218;2022-11-20T08:23:57;2.07;;;1.53;;
13443;SDS011;6794;59.218;18.218;2022-11-20T08:26:24;2.20;;;1.87;;
13443;SDS011;6794;59.218;18.218;2022-11-20T08:28:52;1.77;;;1.40;;
13443;SDS011;6794;59.218;18.218;2022-11-20T08:31:19;2.22;;;1.50;;
13443;SDS011;6794;59.218;18.218;2022-11-20T08:33:45;2.03;;;1.20;;
13443;SDS011;6794;59.218;18.218;2022-11-20T08:36:11;0.77;;;0.70;;
13443;SDS011;6794;59.218;18.218;2022-11-20T08:38:37;3.43;;;2.17;;
13443;SDS011;6794;59.218;18.218;2022-11-20T08:41:04;2.97;;;1.87;;
13443;SDS011;6794;59.218;18.218;2022-11-20T08:43:52;1.97;;;1.37;;
13443;SDS011;6794;59.218;18.218;2022-11-20T08:46:19;1.60;;;1.20;;
13443;SDS011;6794;59.218;18.218;2022-11-20T08:48:45;2.43;;;1.50;;
13443;SDS011;6794;59.218;18.218;2022-11-20T08:51:11;0.90;;;0.70;;
13443;SDS011;6794;59.218;18.218;2022-11-20T08:53:38;1.00;;;0.90;;
13443;SDS011;6794;59.218;18.218;2022-11-20T08:56:04;1.87;;;1.00;;
13443;SDS011;6794;59.218;18.218;2022-11-20T08:58:30;1.20;;;1.10;;
13443;SDS011;6794;59.218;18.218;2022-11-20T09:00:56;1.47;;;1.00;;
13443;SDS011;6794;59.218;18.218;2022-11-20T09:03:22;2.40;;;1.00;;
13443;SDS011;6794;59.218;18.218;2022-11-20T09:05:48;1.10;;;1.00;;
13443;SDS011;6794;59.218;18.218;2022-11-20T09:08:15;3.20;;;1.30;;
13443;SDS011;6794;59.218;18.218;2022-11-20T09:10:41;1.30;;;1.20;;
13443;SDS011;6794;59.218;18.218;2022-11-20T09:13:07;1.30;;;1.20;;
13443;SDS011;6794;59.218;18.218;2022-11-20T09:15:33;2.65;;;1.60;;
13443;SDS011;6794;59.218;18.218;2022-11-20T09:18:00;2.60;;;1.10;;
13443;SDS011;6794;59.218;18.218;2022-11-20T09:20:27;1.37;;;1.00;;
13443;SDS011;6794;59.218;18.218;2022-11-20T09:22:54;1.67;;;1.30;;
13443;SDS011;6794;59.218;18.218;2022-11-20T09:25:20;1.67;;;1.23;;
13443;SDS011;6794;59.218;18.218;2022-11-20T09:27:46;1.13;;;1.00;;
13443;SDS011;6794;59.218;18.218;2022-11-20T09:30:15;1.13;;;1.00;;
13443;SDS011;6794;59.218;18.218;2022-11-20T09:32:42;1.30;;;1.20;;
13443;SDS011;6794;59.218;18.218;2022-11-20T09:35:08;2.00;;;1.30;;
13443;SDS011;6794;59.218;18.218;2022-11-20T09:37:35;1.40;;;1.20;;
13443;SDS011;6794;59.218;18.218;2022-11-20T09:40:01;1.70;;;1.43;;
13443;SDS011;6794;59.218;18.218;2022-11-20T09:45:22;0.90;;;0.90;;
13443;SDS011;6794;59.218;18.218;2022-11-20T09:48:02;1.10;;;1.00;;
13443;SDS011;6794;59.218;18.218;2022-11-20T09:55:35;1.90;;;1.27;;
13443;SDS011;6794;59.218;18.218;2022-11-20T09:58:05;1.20;;;1.10;;
13443;SDS011;6794;59.218;18.218;2022-11-20T10:00:31;1.20;;;1.10;;
13443;SDS011;6794;59.218;18.218;2022-11-20T10:08:16;1.00;;;0.90;;
13443;SDS011;6794;59.218;18.218;2022-11-20T10:10:44;1.20;;;0.80;;
13443;SDS011;6794;59.218;18.218;2022-11-20T10:13:26;1.30;;;0.83;;
13443;SDS011;6794;59.218;18.218;2022-11-20T10:18:49;2.20;;;0.80;;
13443;SDS011;6794;59.218;18.218;2022-11-20T10:29:06;0.97;;;0.97;;
13443;SDS011;6794;59.218;18.218;2022-11-20T10:31:36;1.13;;;0.97;;
13443;SDS011;6794;59.218;18.218;2022-11-20T10:34:07;1.20;;;0.90;;
13443;SDS011;6794;59.218;18.218;2022-11-20T10:36:34;1.00;;;0.90;;
13443;SDS011;6794;59.218;18.218;2022-11-20T10:39:14;0.70;;;0.70;;
13443;SDS011;6794;59.218;18.218;2022-11-20T10:41:42;1.83;;;1.23;;
13443;SDS011;6794;59.218;18.218;2022-11-20T10:44:42;2.37;;;1.00;;
13443;SDS011;6794;59.218;18.218;2022-11-20T10:47:19;1.53;;;1.43;;
13443;SDS011;6794;59.218;18.218;2022-11-20T10:49:48;1.10;;;1.00;;
13443;SDS011;6794;59.218;18.218;2022-11-20T11:00:06;1.10;;;1.00;;
13443;SDS011;6794;59.218;18.218;2022-11-20T11:05:39;1.60;;;1.27;;
13443;SDS011;6794;59.218;18.218;2022-11-20T11:07:57;1.13;;;0.97;;
13443;SDS011;6794;59.218;18.218;2022-11-20T11:10:46;1.07;;;0.97;;
13443;SDS011;6794;59.218;18.218;2022-11-20T11:13:20;1.23;;;0.70;;
13443;SDS011;6794;59.218;18.218;2022-11-20T11:15:47;1.63;;;0.80;;
13443;SDS011;6794;59.218;18.218;2022-11-20T11:18:22;1.33;;;1.00;;
13443;SDS011;6794;59.218;18.218;2022-11-20T11:20:52;1.27;;;1.00;;
13443;SDS011;6794;59.218;18.218;2022-11-20T11:23:32;1.20;;;1.10;;
13443;SDS011;6794;59.218;18.218;2022-11-20T11:26:01;1.17;;;0.90;;
13443;SDS011;6794;59.218;18.218;2022-11-20T11:28:28;0.80;;;0.80;;
13443;SDS011;6794;59.218;18.218;2022-11-20T11:30:54;0.70;;;0.70;;
13443;SDS011;6794;59.218;18.218;2022-11-20T11:35:47;0.80;;;0.80;;
13443;SDS011;6794;59.218;18.218;2022-11-20T11:38:36;0.70;;;0.70;;
13443;SDS011;6794;59.218;18.218;2022-11-20T11:41:01;2.50;;;0.80;;
13443;SDS011;6794;59.218;18.218;2022-11-20T11:43:28;0.97;;;0.80;;
13443;SDS011;6794;59.218;18.218;2022-11-20T11:46:33;1.13;;;0.90;;
13443;SDS011;6794;59.218;18.218;2022-11-20T11:51:52;1.43;;;1.10;;
13443;SDS011;6794;59.218;18.218;2022-11-20T11:56:53;1.40;;;1.00;;
13443;SDS011;6794;59.218;18.218;2022-11-20T11:59:25;1.88;;;1.20;;
13443;SDS011;6794;59.218;18.218;2022-11-20T12:01:59;1.50;;;1.40;;
13443;SDS011;6794;59.218;18.218;2022-11-20T12:07:01;2.27;;;1.10;;
13443;SDS011;6794;59.218;18.218;2022-11-20T12:09:34;1.53;;;1.20;;
13443;SDS011;6794;59.218;18.218;2022-11-20T12:12:15;0.93;;;0.90;;
13443;SDS011;6794;59.218;18.218;2022-11-20T12:14:45;1.53;;;1.23;;
13443;SDS011;6794;59.218;18.218;2022-11-20T12:17:12;1.50;;;1.30;;
13443;SDS011;6794;59.218;18.218;2022-11-20T12:19:39;2.17;;;1.33;;
13443;SDS011;6794;59.218;18.218;2022-11-20T12:25:01;2.07;;;1.60;;
13443;SDS011;6794;59.218;18.218;2022-11-20T12:30:19;3.43;;;2.10;;
13443;SDS011;6794;59.218;18.218;2022-11-20T12:54:40;3.70;;;1.90;;
13443;SDS011;6794;59.218;18.218;2022-11-20T13:05:19;5.83;;;3.27;;
13443;SDS011;6794;59.218;18.218;2022-11-20T13:07:47;4.80;;;2.70;;
13443;SDS011;6794;59.218;18.218;2022-11-20T13:10:22;4.57;;;2.87;;
13443;SDS011;6794;59.218;18.218;2022-11-20T13:12:51;3.27;;;2.83;;
13443;SDS011;6794;59.218;18.218;2022-11-20T13:15:22;6.40;;;3.63;;
13443;SDS011;6794;59.218;18.218;2022-11-20T13:17:54;4.20;;;2.37;;
13443;SDS011;6794;59.218;18.218;2022-11-20T13:20:22;3.58;;;2.42;;
13443;SDS011;6794;59.218;18.218;2022-11-20T13:22:49;2.47;;;1.80;;
13443;SDS011;6794;59.218;18.218;2022-11-20T13:25:27;2.07;;;1.87;;
13443;SDS011;6794;59.218;18.218;2022-11-20T13:27:53;3.40;;;1.60;;
13443;SDS011;6794;59.218;18.218;2022-11-20T13:30:20;2.10;;;1.90;;
13443;SDS011;6794;59.218;18.218;2022-11-20T13:32:48;2.43;;;1.83;;
13443;SDS011;6794;59.218;18.218;2022-11-20T13:35:23;2.43;;;1.90;;
13443;SDS011;6794;59.218;18.218;2022-11-20T13:37:58;4.23;;;1.93;;
13443;SDS011;6794;59.218;18.218;2022-11-20T13:40:24;1.53;;;1.30;;
13443;SDS011;6794;59.218;18.218;2022-11-20T13:42:54;1.60;;;1.20;;
13443;SDS011;6794;59.218;18.218;2022-11-20T13:45:28;2.50;;;1.20;;
13443;SDS011;6794;59.218;18.218;2022-11-20T13:47:55;2.20;;;1.50;;
13443;SDS011;6794;59.218;18.218;2022-11-20T13:50:24;2.63;;;1.50;;
13443;SDS011;6794;59.218;18.218;2022-11-20T13:52:58;1.63;;;1.53;;
13443;SDS011;6794;59.218;18.218;2022-11-20T13:57:58;1.53;;;1.30;;
13443;SDS011;6794;59.218;18.218;2022-11-20T14:00:25;2.07;;;1.40;;
13443;SDS011;6794;59.218;18.218;2022-11-20T14:02:59;4.00;;;3.22;;
13443;SDS011;6794;59.218;18.218;2022-11-20T14:05:26;3.07;;;2.17;;
13443;SDS011;6794;59.218;18.218;2022-11-20T14:07:53;2.60;;;0.97;;
13443;SDS011;6794;59.218;18.218;2022-11-20T14:10:28;1.33;;;1.10;;
13443;SDS011;6794;59.218;18.218;2022-11-20T14:12:55;1.43;;;1.07;;
13443;SDS011;6794;59.218;18.218;2022-11-20T14:17:53;1.60;;;1.23;;
13443;SDS011;6794;59.218;18.218;2022-11-20T14:20:19;2.10;;;1.80;;
13443;SDS011;6794;59.218;18.218;2022-11-20T14:22:50;2.40;;;1.50;;
13443;SDS011;6794;59.218;18.218;2022-11-20T14:27:43;2.73;;;1.10;;
13443;SDS011;6794;59.218;18.218;2022-11-20T14:30:14;2.10;;;1.30;;
13443;SDS011;6794;59.218;18.218;2022-11-20T14:32:41;1.20;;;0.90;;
13443;SDS011;6794;59.218;18.218;2022-11-20T14:35:09;1.80;;;1.50;;
13443;SDS011;6794;59.218;18.218;2022-11-20T14:37:36;1.93;;;1.30;;
13443;SDS011;6794;59.218;18.218;2022-11-20T14:42:49;2.27;;;1.60;;
13443;SDS011;6794;59.218;18.218;2022-11-20T14:45:15;1.73;;;1.50;;
13443;SDS011;6794;59.218;18.218;2022-11-20T14:47:42;2.00;;;1.50;;
13443;SDS011;6794;59.218;18.218;2022-11-20T14:50:28;1.00;;;0.90;;
13443;SDS011;6794;59.218;18.218;2022-11-20T14:53:00;2.00;;;1.40;;
13443;SDS011;6794;59.218;18.218;2022-11-20T14:57:56;5.20;;;1.40;;
13443;SDS011;6794;59.218;18.218;2022-11-20T15:00:23;2.10;;;1.60;;
13443;SDS011;6794;59.218;18.218;2022-11-20T15:02:49;1.30;;;1.20;;
13443;SDS011;6794;59.218;18.218;2022-11-20T15:05:16;1.20;;;1.10;;
13443;SDS011;6794;59.218;18.218;2022-11-20T15:07:44;3.00;;;1.80;;
13443;SDS011;6794;59.218;18.218;2022-11-20T15:10:12;1.10;;;1.00;;
13443;SDS011;6794;59.218;18.218;2022-11-20T15:12:40;2.10;;;1.40;;
13443;SDS011;6794;59.218;18.218;2022-11-20T15:15:11;2.23;;;1.23;;
13443;SDS011;6794;59.218;18.218;2022-11-20T15:17:38;2.00;;;1.80;;
13443;SDS011;6794;59.218;18.218;2022-11-20T15:20:09;2.30;;;1.73;;
13443;SDS011;6794;59.218;18.218;2022-11-20T15:22:37;2.33;;;1.50;;
13443;SDS011;6794;59.218;18.218;2022-11-20T15:25:10;2.67;;;1.50;;
13443;SDS011;6794;59.218;18.218;2022-11-20T15:27:36;1.63;;;1.53;;
13443;SDS011;6794;59.218;18.218;2022-11-20T15:30:05;2.13;;;1.60;;
13443;SDS011;6794;59.218;18.218;2022-11-20T15:32:38;2.87;;;1.63;;
13443;SDS011;6794;59.218;18.218;2022-11-20T15:35:04;2.63;;;1.60;;
13443;SDS011;6794;59.218;18.218;2022-11-20T15:37:30;2.50;;;1.10;;
13443;SDS011;6794;59.218;18.218;2022-11-20T15:39:56;1.90;;;1.40;;
13443;SDS011;6794;59.218;18.218;2022-11-20T15:42:22;1.50;;;1.30;;
13443;SDS011;6794;59.218;18.218;2022-11-20T15:44:48;2.03;;;1.40;;
13443;SDS011;6794;59.218;18.218;2022-11-20T15:47:14;1.77;;;1.40;;
13443;SDS011;6794;59.218;18.218;2022-11-20T15:49:42;3.67;;;1.80;;
13443;SDS011;6794;59.218;18.218;2022-11-20T15:52:08;3.20;;;1.40;;
13443;SDS011;6794;59.218;18.218;2022-11-20T15:54:34;2.30;;;1.57;;
13443;SDS011;6794;59.218;18.218;2022-11-20T15:57:00;1.67;;;1.53;;
13443;SDS011;6794;59.218;18.218;2022-11-20T15:59:27;2.77;;;1.50;;
13443;SDS011;6794;59.218;18.218;2022-11-20T16:01:53;2.00;;;1.33;;
13443;SDS011;6794;59.218;18.218;2022-11-20T16:04:19;2.67;;;1.23;;
13443;SDS011;6794;59.218;18.218;2022-11-20T16:06:45;2.27;;;1.57;;
13443;SDS011;6794;59.218;18.218;2022-11-20T16:09:12;1.50;;;1.37;;
13443;SDS011;6794;59.218;18.218;2022-11-20T16:11:38;1.63;;;1.40;;
13443;SDS011;6794;59.218;18.218;2022-11-20T16:14:04;1.50;;;1.30;;
13443;SDS011;6794;59.218;18.218;2022-11-20T16:16:49;3.00;;;2.30;;
13443;SDS011;6794;59.218;18.218;2022-11-20T16:19:15;3.00;;;1.60;;
13443;SDS011;6794;59.218;18.218;2022-11-20T16:21:43;1.90;;;1.57;;
13443;SDS011;6794;59.218;18.218;2022-11-20T16:24:10;6.60;;;1.90;;
13443;SDS011;6794;59.218;18.218;2022-11-20T16:26:38;2.77;;;1.47;;